Main page
METAR-TAF:

METAR-TAF

Airports :

Aurillac – Tronquières Airport

Aurillac, France

latitude: 44-53N, longitude: 002-25E, elevation: 639 m

Current weather observation

The report was made 44 minutes ago, at 15:00 UTC
Wind 6 kt from the North, varying between North/Northwest and North/Northeast
Temperature 12°C
Humidity 76%
Pressure 1013 hPa
Visibility 10 km or more
Few clouds at a height of 3100 ft
Broken clouds at a height of 6000 ft
Overcast at a height of 7000 ft

METAR: LFLW 201500Z AUTO 36006KT 330V030 9999 FEW031 BKN060 OVC070 12/08 Q1013 NOSIG

Time: 17:44 (15:44 UTC)

Forecast

The report was made 1 hour and 44 minutes ago, at 14:00 UTC
Forecast valid from 20 at 15 UTC to 20 at 24 UTC
Wind 7 kt from the West/Northwest
Visibility 10 km or more
Broken clouds at a height of 2500 ft
Temporary
from 20 at 15 UTC to 20 at 18 UTC
light rain showers
Becoming
from 20 at 18 UTC to 20 at 21 UTC
Wind 3 kt from variable directions

TAF: LFLW 201400Z 2015/2024 30007KT 9999 BKN025 TEMPO 2015/2018 -SHRA BECMG 2018/2021 VRB03KT

Weather observations and forecasts of more than 4000 airports (METAR and TAF reports).

The available stations are represented by yellow and red dots on the map.

Hover mouse over dot to see the name of the station.

Then click to see weather observations and forecasts.

To change the map : click on the green buttons with a black cross to zoom in, on the green button with a dash to zoom out, or on the green arrows for adjacent maps.


METAR-TAF: